createdAt,value
2022-10-07T00:01:41.430Z,7.765808
2022-10-07T00:05:07.058Z,7.765808
2022-10-07T00:08:32.779Z,7.745667
2022-10-07T00:11:58.507Z,7.735596
2022-10-07T00:15:24.191Z,7.604675
2022-10-07T00:18:49.901Z,7.463684
2022-10-07T00:22:15.626Z,7.503967
2022-10-07T00:25:41.324Z,7.493896
2022-10-07T00:29:07.067Z,7.483826
2022-10-07T00:32:32.758Z,7.483826
2022-10-07T00:35:58.352Z,7.403259
2022-10-07T00:39:23.690Z,7.403259
2022-10-07T00:42:48.941Z,7.352905
2022-10-07T00:46:14.341Z,7.342834
2022-10-07T00:49:40.226Z,7.302551
2022-10-07T00:53:05.467Z,7.302551
2022-10-07T00:56:30.716Z,7.272339
2022-10-07T00:59:55.929Z,7.232056
2022-10-07T01:03:21.186Z,7.131348
2022-10-07T01:06:46.383Z,7.101135
2022-10-07T01:10:11.603Z,7.101135
2022-10-07T01:13:36.825Z,7.121277
2022-10-07T01:17:02.129Z,7.131348
2022-10-07T01:20:27.354Z,7.151489
2022-10-07T01:23:52.517Z,7.101135
2022-10-07T01:27:17.755Z,7.121277
2022-10-07T01:30:43.044Z,7.16156
2022-10-07T01:34:08.220Z,7.131348
2022-10-07T01:37:33.485Z,7.201843
2022-10-07T01:40:58.692Z,7.171631
2022-10-07T01:44:23.905Z,7.131348
2022-10-07T01:47:49.119Z,7.091064
2022-10-07T01:51:14.344Z,7.060852
2022-10-07T01:54:39.713Z,7.070923
2022-10-07T01:58:04.800Z,7.091064
2022-10-07T02:01:30.079Z,7.050781
2022-10-07T02:04:55.272Z,6.990356
2022-10-07T02:08:20.495Z,7.020569
2022-10-07T02:11:45.762Z,7.091064
2022-10-07T02:15:10.952Z,7.020569
2022-10-07T02:18:36.176Z,6.950073
2022-10-07T02:22:01.432Z,6.889648
2022-10-07T02:25:26.634Z,6.879578
2022-10-07T02:28:51.875Z,6.849365
2022-10-07T02:32:17.079Z,6.849365
2022-10-07T02:35:42.296Z,6.849365
2022-10-07T02:39:07.506Z,6.839294
2022-10-07T02:42:32.751Z,6.738586
2022-10-07T02:45:58.055Z,6.698303
2022-10-07T02:49:23.197Z,6.698303
2022-10-07T02:52:48.413Z,6.698303
2022-10-07T02:56:13.644Z,6.668091
2022-10-07T02:59:38.861Z,6.617737
2022-10-07T03:03:04.090Z,6.617737
2022-10-07T03:06:29.318Z,6.577454
2022-10-07T03:09:54.555Z,6.547241
2022-10-07T03:13:19.773Z,6.547241
2022-10-07T03:16:44.986Z,6.517029
2022-10-07T03:20:10.221Z,6.517029
2022-10-07T03:23:35.408Z,6.557312
2022-10-07T03:27:00.627Z,6.506958
2022-10-07T03:30:25.855Z,6.506958
2022-10-07T03:33:51.078Z,6.486816
2022-10-07T03:37:16.323Z,6.486816
2022-10-07T03:40:41.519Z,6.456604
2022-10-07T03:44:06.748Z,6.436462
2022-10-07T03:47:31.923Z,6.436462
2022-10-07T03:50:57.171Z,6.426392
2022-10-07T03:54:22.415Z,6.376038
2022-10-07T03:57:47.787Z,6.396179
2022-10-07T04:01:12.826Z,6.396179
2022-10-07T04:04:38.078Z,6.365967
2022-10-07T04:08:03.480Z,6.325684
2022-10-07T04:11:28.706Z,6.325684
2022-10-07T04:14:53.838Z,6.355896
2022-10-07T04:18:19.015Z,6.40625
2022-10-07T04:21:44.200Z,6.396179
2022-10-07T04:25:09.382Z,6.40625
2022-10-07T04:28:34.597Z,6.396179
2022-10-07T04:31:59.695Z,6.396179
2022-10-07T04:35:24.863Z,6.335754
2022-10-07T04:38:50.103Z,6.27533
2022-10-07T04:42:15.318Z,6.295471
2022-10-07T04:45:40.585Z,6.265259
2022-10-07T04:49:05.798Z,6.265259
2022-10-07T04:52:31.019Z,6.325684
2022-10-07T04:55:56.246Z,6.355896
2022-10-07T04:59:23.717Z,6.376038
2022-10-07T05:02:46.715Z,6.456604
2022-10-07T05:06:11.835Z,6.517029
2022-10-07T05:09:37.034Z,6.577454
2022-10-07T05:13:02.191Z,6.587524
2022-10-07T05:16:27.371Z,6.617737
2022-10-07T05:19:52.538Z,6.637878
2022-10-07T05:23:17.694Z,6.617737
2022-10-07T05:26:42.892Z,6.617737
2022-10-07T05:30:08.101Z,6.637878
2022-10-07T05:33:33.278Z,6.668091
2022-10-07T05:36:58.458Z,6.65802
2022-10-07T05:40:23.678Z,6.668091
2022-10-07T05:43:48.893Z,6.728516
2022-10-07T05:47:14.107Z,6.758728
2022-10-07T05:50:39.266Z,6.78894
2022-10-07T05:54:04.469Z,6.799011
2022-10-07T05:57:29.661Z,6.809082
2022-10-07T06:00:54.897Z,6.839294
2022-10-07T06:04:20.102Z,6.839294
2022-10-07T06:07:45.617Z,6.889648
2022-10-07T06:11:10.578Z,6.869507
2022-10-07T06:14:35.755Z,6.90979
2022-10-07T06:18:00.977Z,6.970215
2022-10-07T06:21:26.205Z,7.091064
2022-10-07T06:24:51.428Z,7.151489
2022-10-07T06:28:16.727Z,7.16156
2022-10-07T06:31:41.896Z,7.16156
2022-10-07T06:35:07.116Z,7.211914
2022-10-07T06:38:32.353Z,7.272339
2022-10-07T06:41:57.584Z,7.393188
2022-10-07T06:45:22.814Z,7.524109
2022-10-07T06:48:48.023Z,7.675171
2022-10-07T06:52:13.251Z,7.866516
2022-10-07T06:55:38.453Z,8.03772
2022-10-07T06:59:03.680Z,8.098145
2022-10-07T07:02:28.961Z,8.148499
2022-10-07T07:05:54.718Z,8.229065
2022-10-07T07:09:19.366Z,8.339844
2022-10-07T07:12:45.086Z,8.440552
2022-10-07T07:16:09.815Z,8.561401
2022-10-07T07:19:35.051Z,8.702393
2022-10-07T07:23:00.259Z,8.863525
2022-10-07T07:26:25.482Z,9.054871
2022-10-07T07:29:50.702Z,9.236145
2022-10-07T07:33:15.998Z,9.417419
2022-10-07T07:36:41.219Z,9.598694
2022-10-07T07:40:06.426Z,9.749756
2022-10-07T07:43:31.644Z,9.890747
2022-10-07T07:46:56.919Z,9.971313
2022-10-07T07:50:22.127Z,10.072021
2022-10-07T07:53:47.389Z,10.172729
2022-10-07T07:57:12.577Z,10.273438
2022-10-07T08:00:37.816Z,10.404358
2022-10-07T08:04:03.045Z,10.505066
2022-10-07T08:07:28.269Z,10.585632
2022-10-07T08:10:53.532Z,10.635986
2022-10-07T08:14:18.703Z,10.696411
2022-10-07T08:17:44.211Z,10.726624
2022-10-07T08:21:09.166Z,10.726624
2022-10-07T08:24:34.370Z,10.756836
2022-10-07T08:27:59.633Z,10.817261
2022-10-07T08:31:24.842Z,10.958252
2022-10-07T08:34:50.074Z,11.05896
2022-10-07T08:38:15.313Z,11.109314
2022-10-07T08:41:40.557Z,11.18988
2022-10-07T08:45:05.823Z,11.220093
2022-10-07T08:48:31.005Z,11.351013
2022-10-07T08:51:56.233Z,11.44165
2022-10-07T08:55:21.437Z,11.512146
2022-10-07T08:58:46.637Z,11.582642
2022-10-07T09:02:11.912Z,11.622925
2022-10-07T09:05:37.127Z,11.733704
2022-10-07T09:09:02.348Z,11.804199
2022-10-07T09:12:27.582Z,11.864624
2022-10-07T09:15:52.869Z,11.834412
2022-10-07T09:19:18.071Z,11.854553
2022-10-07T09:22:43.282Z,11.904907
2022-10-07T09:26:08.520Z,11.985474
2022-10-07T09:29:33.766Z,12.045898
2022-10-07T09:32:59.014Z,12.166748
2022-10-07T09:36:24.251Z,12.277527
2022-10-07T09:39:49.472Z,12.408447
2022-10-07T09:43:14.684Z,12.529297
2022-10-07T09:46:40.041Z,12.670288
2022-10-07T09:50:05.150Z,12.791138
2022-10-07T09:53:30.397Z,12.901917
2022-10-07T09:56:55.608Z,13.07312
2022-10-07T10:00:20.849Z,13.153687
2022-10-07T10:03:46.152Z,13.234253
2022-10-07T10:07:11.337Z,13.334961
2022-10-07T10:10:36.586Z,13.385315
2022-10-07T10:14:01.797Z,13.546448
2022-10-07T10:17:27.033Z,13.667297
2022-10-07T10:20:52.258Z,13.768005
2022-10-07T10:24:17.480Z,13.868713
2022-10-07T10:27:42.728Z,13.999634
2022-10-07T10:31:07.979Z,14.090271
2022-10-07T10:34:33.168Z,14.221191
2022-10-07T10:37:58.411Z,14.33197
2022-10-07T10:41:23.655Z,14.45282
2022-10-07T10:44:48.928Z,14.523315
2022-10-07T10:48:15.041Z,14.553528
2022-10-07T10:51:40.233Z,14.654236
2022-10-07T10:55:05.463Z,14.644165
2022-10-07T10:58:30.682Z,14.724731
2022-10-07T11:01:55.970Z,14.875793
2022-10-07T11:05:21.123Z,15.006714
2022-10-07T11:08:46.262Z,15.157776
2022-10-07T11:12:11.763Z,15.248413
2022-10-07T11:15:36.986Z,15.33905
2022-10-07T11:19:02.417Z,15.389404
2022-10-07T11:22:27.755Z,15.4599
2022-10-07T11:25:53.842Z,15.530396
2022-10-07T11:29:19.027Z,15.59082
2022-10-07T11:32:44.527Z,15.600891
2022-10-07T11:36:09.489Z,15.570679
2022-10-07T11:39:34.654Z,15.540466
2022-10-07T11:42:59.841Z,15.570679
2022-10-07T11:46:25.141Z,15.621033
2022-10-07T11:49:50.270Z,15.71167
2022-10-07T11:53:15.502Z,15.741882
2022-10-07T11:56:40.715Z,15.782166
2022-10-07T12:00:05.955Z,15.822449
2022-10-07T12:03:31.238Z,15.782166
2022-10-07T12:06:56.364Z,15.782166
2022-10-07T12:10:21.627Z,15.762024
2022-10-07T12:13:46.830Z,15.782166
2022-10-07T12:17:12.062Z,15.802307
2022-10-07T12:20:37.316Z,15.751953
2022-10-07T12:24:02.552Z,15.721741
2022-10-07T12:27:27.804Z,15.741882
2022-10-07T12:30:53.007Z,15.762024
2022-10-07T12:34:18.246Z,15.822449
2022-10-07T12:37:43.463Z,15.84259
2022-10-07T12:41:08.751Z,15.903015
2022-10-07T12:44:34.003Z,15.943298
2022-10-07T12:47:59.213Z,15.973511
2022-10-07T12:51:24.477Z,16.044006
2022-10-07T12:54:49.718Z,16.044006
2022-10-07T12:58:14.981Z,16.003723
2022-10-07T13:01:40.355Z,15.872803
2022-10-07T13:05:05.518Z,15.762024
2022-10-07T13:08:30.747Z,15.762024
2022-10-07T13:11:55.995Z,15.762024
2022-10-07T13:15:21.271Z,15.721741
2022-10-07T13:18:46.512Z,15.721741
2022-10-07T13:22:11.694Z,15.741882
2022-10-07T13:25:36.918Z,15.782166
2022-10-07T13:29:02.173Z,15.802307
2022-10-07T13:32:27.401Z,15.822449
2022-10-07T13:35:52.681Z,15.751953
2022-10-07T13:39:17.914Z,15.71167
2022-10-07T13:42:43.337Z,15.651245
2022-10-07T13:46:08.465Z,15.600891
2022-10-07T13:49:33.678Z,15.570679
2022-10-07T13:52:58.898Z,15.530396
2022-10-07T13:56:24.140Z,15.510254
2022-10-07T13:59:49.418Z,15.510254
2022-10-07T14:03:14.648Z,15.510254
2022-10-07T14:06:39.928Z,15.510254
2022-10-07T14:10:05.192Z,15.469971
2022-10-07T14:13:30.389Z,15.469971
2022-10-07T14:16:55.749Z,15.4599
2022-10-07T14:20:20.964Z,15.429688
2022-10-07T14:23:46.238Z,15.359192
2022-10-07T14:27:11.487Z,15.389404
2022-10-07T15:05:21.128Z,15.157776
2022-10-07T15:08:46.261Z,15.08728
2022-10-07T15:12:11.494Z,15.057068
2022-10-07T15:15:36.732Z,15.006714
2022-10-07T15:19:01.986Z,14.976501
2022-10-07T15:22:27.354Z,14.976501
2022-10-07T15:25:52.550Z,14.916077
2022-10-07T15:29:17.785Z,14.855652
2022-10-07T15:32:43.406Z,14.805298
2022-10-07T15:36:08.284Z,14.754944
2022-10-07T15:39:37.501Z,14.70459
2022-10-07T15:42:58.762Z,14.684448
2022-10-07T15:46:24.023Z,14.613953
2022-10-07T15:49:49.228Z,14.523315
2022-10-07T15:53:14.431Z,14.523315
2022-10-07T15:56:39.672Z,14.422607
2022-10-07T16:00:04.874Z,14.402466
2022-10-07T16:03:30.070Z,14.321899
2022-10-07T16:06:55.306Z,14.20105
2022-10-07T16:10:20.508Z,14.100342
2022-10-07T16:13:45.778Z,13.969421
2022-10-07T16:17:10.931Z,13.838501
2022-10-07T16:20:36.105Z,13.747864
2022-10-07T16:24:01.332Z,13.667297
2022-10-07T16:27:26.701Z,13.596802
2022-10-07T16:30:51.974Z,13.516235
2022-10-07T16:34:17.143Z,13.415527
2022-10-07T16:37:42.322Z,13.334961
2022-10-07T16:41:07.485Z,13.264465
2022-10-07T16:44:32.658Z,13.143616
2022-10-07T16:47:57.859Z,13.042908
2022-10-07T16:51:23.008Z,12.901917
2022-10-07T16:54:48.160Z,12.82135
2022-10-07T16:58:13.326Z,12.740784
2022-10-07T17:01:38.514Z,12.670288
2022-10-07T17:05:03.721Z,12.56958
2022-10-07T17:08:28.977Z,12.519226
2022-10-07T17:11:54.193Z,12.44873
2022-10-07T17:15:19.445Z,12.408447
2022-10-07T17:18:44.677Z,12.378235
2022-10-07T17:22:09.915Z,12.348022
2022-10-07T17:25:35.122Z,12.287598
2022-10-07T17:29:00.336Z,12.277527
2022-10-07T17:32:25.545Z,12.227173
2022-10-07T17:35:51.624Z,12.207031
2022-10-07T17:39:16.902Z,12.18689
2022-10-07T17:42:42.125Z,12.18689
2022-10-07T17:46:11.761Z,12.136536
2022-10-07T17:49:32.555Z,12.156677
2022-10-07T17:52:57.790Z,12.19696
2022-10-07T17:56:23.119Z,12.307739
2022-10-07T17:59:48.286Z,12.44873
2022-10-07T18:03:13.510Z,12.539368
2022-10-07T18:06:38.704Z,12.589722
2022-10-07T18:10:03.922Z,12.710571
2022-10-07T18:13:29.104Z,12.781067
2022-10-07T18:16:54.253Z,12.871704
2022-10-07T18:20:19.462Z,12.861633
2022-10-07T18:23:44.750Z,12.871704
2022-10-07T18:27:10.003Z,12.901917
2022-10-07T18:30:35.231Z,12.922058
2022-10-07T18:34:00.475Z,12.891846
2022-10-07T18:37:25.686Z,12.891846
2022-10-07T18:40:50.866Z,12.901917
2022-10-07T18:44:16.068Z,12.922058
2022-10-07T18:47:41.316Z,12.891846
2022-10-07T18:51:06.495Z,12.922058
2022-10-07T18:54:31.661Z,12.861633
2022-10-07T18:57:56.848Z,12.901917
2022-10-07T19:01:22.132Z,12.922058
2022-10-07T19:04:47.254Z,12.891846
2022-10-07T19:08:12.465Z,12.770996
2022-10-07T19:11:37.657Z,12.710571
2022-10-07T19:15:02.836Z,12.619934
2022-10-07T19:18:28.057Z,12.539368
2022-10-07T19:21:53.300Z,12.468872
2022-10-07T19:25:18.445Z,12.418518
2022-10-07T19:28:43.659Z,12.368164
2022-10-07T19:32:09.133Z,12.337952
2022-10-07T19:35:33.989Z,12.287598
2022-10-07T19:38:59.224Z,12.267456
2022-10-07T19:42:24.433Z,12.237244
2022-10-07T19:45:49.704Z,12.237244
2022-10-07T19:49:14.849Z,12.18689
2022-10-07T19:52:40.047Z,12.126465
2022-10-07T19:56:05.276Z,12.116394
2022-10-07T19:59:30.473Z,12.045898
2022-10-07T20:02:55.688Z,12.045898
2022-10-07T20:06:20.909Z,12.015686
2022-10-07T20:09:46.171Z,12.045898
2022-10-07T20:13:11.398Z,12.015686
2022-10-07T20:16:36.603Z,12.015686
2022-10-07T20:20:01.780Z,12.005615
2022-10-07T20:23:27.020Z,12.015686
2022-10-07T20:26:52.233Z,12.156677
2022-10-07T20:30:18.295Z,12.237244
2022-10-07T20:33:42.634Z,12.348022
2022-10-07T20:37:07.876Z,12.408447
2022-10-07T20:40:33.104Z,12.519226
2022-10-07T20:43:58.318Z,12.559509
2022-10-07T20:47:23.525Z,12.599792
2022-10-07T20:50:48.674Z,12.599792
2022-10-07T20:54:13.880Z,12.680359
2022-10-07T20:57:39.057Z,12.710571
2022-10-07T21:01:04.281Z,12.680359
2022-10-07T21:04:29.473Z,12.670288
2022-10-07T21:07:54.992Z,12.640076
2022-10-07T21:11:19.882Z,12.599792
2022-10-07T21:14:45.091Z,12.619934
2022-10-07T21:18:10.287Z,12.559509
2022-10-07T21:21:35.530Z,12.539368
2022-10-07T21:25:00.664Z,12.529297
2022-10-07T21:28:25.901Z,12.529297
2022-10-07T21:31:51.046Z,12.529297
2022-10-07T21:35:16.232Z,12.559509
2022-10-07T21:38:41.446Z,12.499084
2022-10-07T21:42:06.587Z,12.468872
2022-10-07T21:45:31.807Z,12.378235
2022-10-07T21:48:56.974Z,12.337952
2022-10-07T21:52:22.140Z,12.287598
2022-10-07T21:55:47.350Z,12.307739
2022-10-07T21:59:12.474Z,12.277527
2022-10-07T22:02:37.697Z,12.31781
2022-10-07T22:06:02.801Z,12.368164
2022-10-07T22:09:27.998Z,12.418518
2022-10-07T22:12:53.207Z,12.418518
2022-10-07T22:16:18.400Z,12.458801
2022-10-07T22:19:43.548Z,12.468872
2022-10-07T22:23:08.729Z,12.44873
2022-10-07T22:26:33.919Z,12.368164
2022-10-07T22:29:59.112Z,12.31781
2022-10-07T22:33:24.261Z,12.227173
2022-10-07T22:36:49.446Z,12.136536
2022-10-07T22:40:14.616Z,12.06604
2022-10-07T22:43:39.770Z,12.086182
2022-10-07T22:47:04.982Z,12.086182
2022-10-07T22:50:30.130Z,11.985474
2022-10-07T22:53:55.350Z,11.904907
2022-10-07T22:57:20.516Z,11.854553
2022-10-07T23:00:45.681Z,11.824341
2022-10-07T23:04:10.877Z,11.985474
2022-10-07T23:07:36.022Z,12.116394
2022-10-07T23:11:01.189Z,12.19696
2022-10-07T23:14:26.360Z,12.267456
2022-10-07T23:17:51.550Z,12.368164
2022-10-07T23:21:16.735Z,12.388306
2022-10-07T23:24:41.915Z,12.458801
2022-10-07T23:28:07.188Z,12.44873
2022-10-07T23:31:32.636Z,12.499084
2022-10-07T23:34:57.470Z,12.489014
2022-10-07T23:38:22.679Z,12.458801
2022-10-07T23:41:47.851Z,12.458801
2022-10-07T23:45:13.012Z,12.499084
2022-10-07T23:48:38.179Z,12.468872
2022-10-07T23:52:03.342Z,12.499084
2022-10-07T23:55:28.568Z,12.499084
2022-10-07T23:58:53.717Z,12.559509
